sensor_id;sensor_type;location;lat;lon;timestamp;P1;durP1;ratioP1;P2;durP2;ratioP2
9384;SDS011;4732;49.340;10.886;2024-01-10T00:02:05;16.77;;;9.50;;
9384;SDS011;4732;49.340;10.886;2024-01-10T00:04:31;19.73;;;9.20;;
9384;SDS011;4732;49.340;10.886;2024-01-10T00:06:56;16.50;;;10.07;;
9384;SDS011;4732;49.340;10.886;2024-01-10T00:09:22;17.30;;;8.93;;
9384;SDS011;4732;49.340;10.886;2024-01-10T00:11:48;15.83;;;9.17;;
9384;SDS011;4732;49.340;10.886;2024-01-10T00:14:13;16.33;;;8.70;;
9384;SDS011;4732;49.340;10.886;2024-01-10T00:16:39;18.00;;;9.67;;
9384;SDS011;4732;49.340;10.886;2024-01-10T00:19:05;17.57;;;9.07;;
9384;SDS011;4732;49.340;10.886;2024-01-10T00:21:31;18.03;;;8.50;;
9384;SDS011;4732;49.340;10.886;2024-01-10T00:23:57;19.57;;;9.20;;
9384;SDS011;4732;49.340;10.886;2024-01-10T00:26:22;16.33;;;9.17;;
9384;SDS011;4732;49.340;10.886;2024-01-10T00:28:48;17.33;;;9.10;;
9384;SDS011;4732;49.340;10.886;2024-01-10T00:31:14;17.73;;;9.37;;
9384;SDS011;4732;49.340;10.886;2024-01-10T00:33:40;15.90;;;8.43;;
9384;SDS011;4732;49.340;10.886;2024-01-10T00:36:06;17.40;;;9.43;;
9384;SDS011;4732;49.340;10.886;2024-01-10T00:38:32;17.73;;;9.67;;
9384;SDS011;4732;49.340;10.886;2024-01-10T00:40:57;15.97;;;8.93;;
9384;SDS011;4732;49.340;10.886;2024-01-10T00:43:23;18.47;;;9.70;;
9384;SDS011;4732;49.340;10.886;2024-01-10T00:45:49;17.93;;;9.37;;
9384;SDS011;4732;49.340;10.886;2024-01-10T00:48:15;17.83;;;9.20;;
9384;SDS011;4732;49.340;10.886;2024-01-10T00:50:42;14.30;;;8.07;;
9384;SDS011;4732;49.340;10.886;2024-01-10T00:53:09;16.20;;;9.07;;
9384;SDS011;4732;49.340;10.886;2024-01-10T00:55:35;16.57;;;8.67;;
9384;SDS011;4732;49.340;10.886;2024-01-10T00:58:00;17.07;;;8.63;;
9384;SDS011;4732;49.340;10.886;2024-01-10T01:00:26;18.60;;;9.83;;
9384;SDS011;4732;49.340;10.886;2024-01-10T01:02:52;19.10;;;9.87;;
9384;SDS011;4732;49.340;10.886;2024-01-10T01:05:18;16.67;;;8.90;;
9384;SDS011;4732;49.340;10.886;2024-01-10T01:07:44;16.73;;;8.83;;
9384;SDS011;4732;49.340;10.886;2024-01-10T01:10:09;14.83;;;8.90;;
9384;SDS011;4732;49.340;10.886;2024-01-10T01:12:35;15.53;;;8.70;;
9384;SDS011;4732;49.340;10.886;2024-01-10T01:15:01;18.97;;;9.77;;
9384;SDS011;4732;49.340;10.886;2024-01-10T01:17:27;17.77;;;9.63;;
9384;SDS011;4732;49.340;10.886;2024-01-10T01:19:52;14.07;;;8.77;;
9384;SDS011;4732;49.340;10.886;2024-01-10T01:22:19;17.73;;;9.60;;
9384;SDS011;4732;49.340;10.886;2024-01-10T01:24:45;15.80;;;8.60;;
9384;SDS011;4732;49.340;10.886;2024-01-10T01:27:10;16.90;;;9.50;;
9384;SDS011;4732;49.340;10.886;2024-01-10T01:29:36;14.40;;;8.43;;
9384;SDS011;4732;49.340;10.886;2024-01-10T01:32:02;16.30;;;8.77;;
9384;SDS011;4732;49.340;10.886;2024-01-10T01:34:28;18.10;;;9.27;;
9384;SDS011;4732;49.340;10.886;2024-01-10T01:36:53;16.17;;;8.37;;
9384;SDS011;4732;49.340;10.886;2024-01-10T01:39:19;17.07;;;8.33;;
9384;SDS011;4732;49.340;10.886;2024-01-10T01:41:44;15.07;;;8.73;;
9384;SDS011;4732;49.340;10.886;2024-01-10T01:44:10;19.63;;;9.20;;
9384;SDS011;4732;49.340;10.886;2024-01-10T01:46:39;19.63;;;9.43;;
9384;SDS011;4732;49.340;10.886;2024-01-10T01:49:06;15.77;;;8.53;;
9384;SDS011;4732;49.340;10.886;2024-01-10T01:51:32;14.93;;;8.87;;
9384;SDS011;4732;49.340;10.886;2024-01-10T01:53:59;16.73;;;9.97;;
9384;SDS011;4732;49.340;10.886;2024-01-10T01:56:25;18.97;;;8.97;;
9384;SDS011;4732;49.340;10.886;2024-01-10T01:58:51;18.53;;;10.13;;
9384;SDS011;4732;49.340;10.886;2024-01-10T02:01:19;15.53;;;8.60;;
9384;SDS011;4732;49.340;10.886;2024-01-10T02:03:47;17.80;;;9.27;;
9384;SDS011;4732;49.340;10.886;2024-01-10T02:06:13;19.73;;;9.50;;
9384;SDS011;4732;49.340;10.886;2024-01-10T02:08:39;17.93;;;9.57;;
9384;SDS011;4732;49.340;10.886;2024-01-10T02:11:04;17.47;;;9.47;;
9384;SDS011;4732;49.340;10.886;2024-01-10T02:13:33;17.97;;;9.57;;
9384;SDS011;4732;49.340;10.886;2024-01-10T02:15:59;19.53;;;10.80;;
9384;SDS011;4732;49.340;10.886;2024-01-10T02:18:26;17.83;;;9.63;;
9384;SDS011;4732;49.340;10.886;2024-01-10T02:20:51;20.13;;;9.93;;
9384;SDS011;4732;49.340;10.886;2024-01-10T02:23:17;15.43;;;8.70;;
9384;SDS011;4732;49.340;10.886;2024-01-10T02:25:43;15.27;;;8.67;;
9384;SDS011;4732;49.340;10.886;2024-01-10T02:28:09;15.67;;;9.00;;
9384;SDS011;4732;49.340;10.886;2024-01-10T02:30:36;17.70;;;9.03;;
9384;SDS011;4732;49.340;10.886;2024-01-10T02:33:02;18.83;;;9.47;;
9384;SDS011;4732;49.340;10.886;2024-01-10T02:35:28;15.87;;;8.70;;
9384;SDS011;4732;49.340;10.886;2024-01-10T02:37:57;16.03;;;9.17;;
9384;SDS011;4732;49.340;10.886;2024-01-10T02:40:23;16.30;;;9.73;;
9384;SDS011;4732;49.340;10.886;2024-01-10T02:42:49;17.63;;;9.53;;
9384;SDS011;4732;49.340;10.886;2024-01-10T02:45:16;17.80;;;9.90;;
9384;SDS011;4732;49.340;10.886;2024-01-10T02:47:42;17.53;;;9.60;;
9384;SDS011;4732;49.340;10.886;2024-01-10T02:50:08;17.77;;;9.27;;
9384;SDS011;4732;49.340;10.886;2024-01-10T02:52:34;18.77;;;10.43;;
9384;SDS011;4732;49.340;10.886;2024-01-10T02:54:59;19.63;;;9.87;;
9384;SDS011;4732;49.340;10.886;2024-01-10T02:57:25;19.47;;;10.00;;
9384;SDS011;4732;49.340;10.886;2024-01-10T02:59:50;17.03;;;9.70;;
9384;SDS011;4732;49.340;10.886;2024-01-10T03:02:16;18.63;;;10.03;;
9384;SDS011;4732;49.340;10.886;2024-01-10T03:04:42;18.73;;;10.03;;
9384;SDS011;4732;49.340;10.886;2024-01-10T03:07:09;16.77;;;8.47;;
9384;SDS011;4732;49.340;10.886;2024-01-10T03:09:34;17.83;;;9.80;;
9384;SDS011;4732;49.340;10.886;2024-01-10T03:12:00;15.47;;;9.33;;
9384;SDS011;4732;49.340;10.886;2024-01-10T03:14:26;17.40;;;9.40;;
9384;SDS011;4732;49.340;10.886;2024-01-10T03:16:51;19.33;;;9.97;;
9384;SDS011;4732;49.340;10.886;2024-01-10T03:19:18;19.53;;;9.50;;
9384;SDS011;4732;49.340;10.886;2024-01-10T03:21:44;16.37;;;8.43;;
9384;SDS011;4732;49.340;10.886;2024-01-10T03:24:09;15.07;;;8.37;;
9384;SDS011;4732;49.340;10.886;2024-01-10T03:26:35;16.67;;;9.37;;
9384;SDS011;4732;49.340;10.886;2024-01-10T03:29:01;18.17;;;9.07;;
9384;SDS011;4732;49.340;10.886;2024-01-10T03:31:27;18.63;;;9.67;;
9384;SDS011;4732;49.340;10.886;2024-01-10T03:33:54;17.73;;;9.23;;
9384;SDS011;4732;49.340;10.886;2024-01-10T03:36:19;17.30;;;9.30;;
9384;SDS011;4732;49.340;10.886;2024-01-10T03:38:45;18.70;;;9.10;;
9384;SDS011;4732;49.340;10.886;2024-01-10T03:41:14;19.07;;;10.27;;
9384;SDS011;4732;49.340;10.886;2024-01-10T03:43:41;18.90;;;9.90;;
9384;SDS011;4732;49.340;10.886;2024-01-10T03:46:07;18.57;;;10.10;;
9384;SDS011;4732;49.340;10.886;2024-01-10T03:48:34;15.60;;;8.93;;
9384;SDS011;4732;49.340;10.886;2024-01-10T03:51:00;17.73;;;9.33;;
9384;SDS011;4732;49.340;10.886;2024-01-10T03:53:26;18.57;;;9.40;;
9384;SDS011;4732;49.340;10.886;2024-01-10T03:55:52;18.23;;;10.17;;
9384;SDS011;4732;49.340;10.886;2024-01-10T03:58:17;20.30;;;10.73;;
9384;SDS011;4732;49.340;10.886;2024-01-10T04:00:43;18.20;;;9.90;;
9384;SDS011;4732;49.340;10.886;2024-01-10T04:03:09;16.57;;;9.73;;
9384;SDS011;4732;49.340;10.886;2024-01-10T04:05:35;17.93;;;10.03;;
9384;SDS011;4732;49.340;10.886;2024-01-10T04:08:00;17.50;;;9.27;;
9384;SDS011;4732;49.340;10.886;2024-01-10T04:10:26;17.07;;;9.43;;
9384;SDS011;4732;49.340;10.886;2024-01-10T04:12:52;19.03;;;10.27;;
9384;SDS011;4732;49.340;10.886;2024-01-10T04:15:17;17.43;;;9.17;;
9384;SDS011;4732;49.340;10.886;2024-01-10T04:17:43;15.50;;;8.73;;
9384;SDS011;4732;49.340;10.886;2024-01-10T04:20:09;17.53;;;9.17;;
9384;SDS011;4732;49.340;10.886;2024-01-10T04:22:35;17.50;;;8.77;;
9384;SDS011;4732;49.340;10.886;2024-01-10T04:25:02;19.00;;;10.00;;
9384;SDS011;4732;49.340;10.886;2024-01-10T04:27:30;18.53;;;9.87;;
9384;SDS011;4732;49.340;10.886;2024-01-10T04:29:56;15.83;;;9.10;;
9384;SDS011;4732;49.340;10.886;2024-01-10T04:32:22;17.97;;;10.30;;
9384;SDS011;4732;49.340;10.886;2024-01-10T04:34:48;18.63;;;10.10;;
9384;SDS011;4732;49.340;10.886;2024-01-10T04:37:13;20.17;;;10.47;;
9384;SDS011;4732;49.340;10.886;2024-01-10T04:39:39;18.97;;;10.00;;
9384;SDS011;4732;49.340;10.886;2024-01-10T04:42:07;17.80;;;10.90;;
9384;SDS011;4732;49.340;10.886;2024-01-10T04:44:34;18.77;;;9.67;;
9384;SDS011;4732;49.340;10.886;2024-01-10T04:46:59;18.43;;;9.80;;
9384;SDS011;4732;49.340;10.886;2024-01-10T04:49:25;18.00;;;9.43;;
9384;SDS011;4732;49.340;10.886;2024-01-10T04:51:51;18.20;;;10.03;;
9384;SDS011;4732;49.340;10.886;2024-01-10T04:54:17;16.13;;;9.10;;
9384;SDS011;4732;49.340;10.886;2024-01-10T04:56:43;17.07;;;9.33;;
9384;SDS011;4732;49.340;10.886;2024-01-10T04:59:08;20.70;;;10.77;;
9384;SDS011;4732;49.340;10.886;2024-01-10T05:01:34;20.23;;;9.60;;
9384;SDS011;4732;49.340;10.886;2024-01-10T05:04:02;13.10;;;8.37;;
9384;SDS011;4732;49.340;10.886;2024-01-10T05:06:27;16.07;;;8.53;;
9384;SDS011;4732;49.340;10.886;2024-01-10T05:08:53;15.63;;;8.97;;
9384;SDS011;4732;49.340;10.886;2024-01-10T05:11:23;17.30;;;9.40;;
9384;SDS011;4732;49.340;10.886;2024-01-10T05:13:49;19.27;;;10.00;;
9384;SDS011;4732;49.340;10.886;2024-01-10T05:16:15;17.47;;;8.70;;
9384;SDS011;4732;49.340;10.886;2024-01-10T05:18:42;18.07;;;9.97;;
9384;SDS011;4732;49.340;10.886;2024-01-10T05:21:07;16.07;;;9.23;;
9384;SDS011;4732;49.340;10.886;2024-01-10T05:23:33;16.40;;;9.23;;
9384;SDS011;4732;49.340;10.886;2024-01-10T05:25:59;19.93;;;10.90;;
9384;SDS011;4732;49.340;10.886;2024-01-10T05:28:25;20.07;;;11.17;;
9384;SDS011;4732;49.340;10.886;2024-01-10T05:30:50;18.33;;;9.93;;
9384;SDS011;4732;49.340;10.886;2024-01-10T05:33:16;23.23;;;10.50;;
9384;SDS011;4732;49.340;10.886;2024-01-10T05:35:42;15.27;;;8.60;;
9384;SDS011;4732;49.340;10.886;2024-01-10T05:38:08;19.27;;;10.67;;
9384;SDS011;4732;49.340;10.886;2024-01-10T05:40:33;19.80;;;10.37;;
9384;SDS011;4732;49.340;10.886;2024-01-10T05:42:59;20.70;;;10.33;;
9384;SDS011;4732;49.340;10.886;2024-01-10T05:45:26;18.23;;;9.13;;
9384;SDS011;4732;49.340;10.886;2024-01-10T05:47:53;18.77;;;10.43;;
9384;SDS011;4732;49.340;10.886;2024-01-10T05:50:18;20.30;;;10.57;;
9384;SDS011;4732;49.340;10.886;2024-01-10T05:52:44;19.73;;;10.00;;
9384;SDS011;4732;49.340;10.886;2024-01-10T05:55:10;17.33;;;9.17;;
9384;SDS011;4732;49.340;10.886;2024-01-10T05:57:36;15.70;;;9.83;;
9384;SDS011;4732;49.340;10.886;2024-01-10T06:00:02;18.90;;;9.63;;
9384;SDS011;4732;49.340;10.886;2024-01-10T06:02:29;17.60;;;9.57;;
9384;SDS011;4732;49.340;10.886;2024-01-10T06:04:55;18.80;;;10.30;;
9384;SDS011;4732;49.340;10.886;2024-01-10T06:07:21;19.40;;;10.63;;
9384;SDS011;4732;49.340;10.886;2024-01-10T06:09:50;22.83;;;10.83;;
9384;SDS011;4732;49.340;10.886;2024-01-10T06:12:15;18.90;;;10.30;;
9384;SDS011;4732;49.340;10.886;2024-01-10T06:14:41;21.53;;;11.30;;
9384;SDS011;4732;49.340;10.886;2024-01-10T06:17:07;16.93;;;9.63;;
9384;SDS011;4732;49.340;10.886;2024-01-10T06:19:33;16.10;;;9.43;;
9384;SDS011;4732;49.340;10.886;2024-01-10T06:21:59;18.00;;;11.03;;
9384;SDS011;4732;49.340;10.886;2024-01-10T06:24:25;17.57;;;10.13;;
9384;SDS011;4732;49.340;10.886;2024-01-10T06:26:51;16.17;;;9.17;;
9384;SDS011;4732;49.340;10.886;2024-01-10T06:29:18;19.30;;;9.90;;
9384;SDS011;4732;49.340;10.886;2024-01-10T06:31:43;19.70;;;10.33;;
9384;SDS011;4732;49.340;10.886;2024-01-10T06:34:09;18.93;;;10.57;;
9384;SDS011;4732;49.340;10.886;2024-01-10T06:36:35;19.50;;;10.33;;
9384;SDS011;4732;49.340;10.886;2024-01-10T06:39:01;17.20;;;10.27;;
9384;SDS011;4732;49.340;10.886;2024-01-10T06:41:27;23.33;;;10.83;;
9384;SDS011;4732;49.340;10.886;2024-01-10T06:43:53;19.90;;;10.10;;
9384;SDS011;4732;49.340;10.886;2024-01-10T06:46:19;24.60;;;11.57;;
9384;SDS011;4732;49.340;10.886;2024-01-10T06:48:45;20.80;;;10.60;;
9384;SDS011;4732;49.340;10.886;2024-01-10T06:51:16;22.43;;;12.00;;
9384;SDS011;4732;49.340;10.886;2024-01-10T06:53:41;22.50;;;11.30;;
9384;SDS011;4732;49.340;10.886;2024-01-10T06:56:07;24.40;;;11.80;;
9384;SDS011;4732;49.340;10.886;2024-01-10T06:58:34;19.90;;;11.13;;
9384;SDS011;4732;49.340;10.886;2024-01-10T07:01:00;21.40;;;12.10;;
9384;SDS011;4732;49.340;10.886;2024-01-10T07:03:26;27.87;;;13.60;;
9384;SDS011;4732;49.340;10.886;2024-01-10T07:05:52;23.37;;;12.70;;
9384;SDS011;4732;49.340;10.886;2024-01-10T07:08:18;26.37;;;14.67;;
9384;SDS011;4732;49.340;10.886;2024-01-10T07:10:43;30.17;;;14.17;;
9384;SDS011;4732;49.340;10.886;2024-01-10T07:13:09;23.40;;;12.30;;
9384;SDS011;4732;49.340;10.886;2024-01-10T07:15:35;24.77;;;12.53;;
9384;SDS011;4732;49.340;10.886;2024-01-10T07:18:02;24.13;;;13.13;;
9384;SDS011;4732;49.340;10.886;2024-01-10T07:20:28;20.63;;;11.83;;
9384;SDS011;4732;49.340;10.886;2024-01-10T07:22:53;21.10;;;12.00;;
9384;SDS011;4732;49.340;10.886;2024-01-10T07:25:19;23.07;;;13.13;;
9384;SDS011;4732;49.340;10.886;2024-01-10T07:27:47;22.70;;;13.70;;
9384;SDS011;4732;49.340;10.886;2024-01-10T07:30:13;22.07;;;12.93;;
9384;SDS011;4732;49.340;10.886;2024-01-10T07:32:40;24.40;;;12.97;;
9384;SDS011;4732;49.340;10.886;2024-01-10T07:35:06;23.10;;;12.07;;
9384;SDS011;4732;49.340;10.886;2024-01-10T07:37:38;21.20;;;11.20;;
9384;SDS011;4732;49.340;10.886;2024-01-10T07:40:04;25.30;;;11.90;;
9384;SDS011;4732;49.340;10.886;2024-01-10T07:42:32;23.27;;;12.57;;
9384;SDS011;4732;49.340;10.886;2024-01-10T07:44:58;25.03;;;12.03;;
9384;SDS011;4732;49.340;10.886;2024-01-10T07:47:25;26.40;;;12.73;;
9384;SDS011;4732;49.340;10.886;2024-01-10T07:49:51;33.27;;;16.00;;
9384;SDS011;4732;49.340;10.886;2024-01-10T07:52:17;27.00;;;12.07;;
9384;SDS011;4732;49.340;10.886;2024-01-10T07:54:42;24.23;;;12.33;;
9384;SDS011;4732;49.340;10.886;2024-01-10T07:57:08;26.93;;;12.57;;
9384;SDS011;4732;49.340;10.886;2024-01-10T07:59:34;18.80;;;11.20;;
9384;SDS011;4732;49.340;10.886;2024-01-10T08:02:00;19.63;;;11.10;;
9384;SDS011;4732;49.340;10.886;2024-01-10T08:04:27;18.03;;;11.53;;
9384;SDS011;4732;49.340;10.886;2024-01-10T08:06:53;22.27;;;12.50;;
9384;SDS011;4732;49.340;10.886;2024-01-10T08:09:20;19.87;;;10.60;;
9384;SDS011;4732;49.340;10.886;2024-01-10T08:11:46;21.00;;;11.73;;
9384;SDS011;4732;49.340;10.886;2024-01-10T08:14:13;21.40;;;12.10;;
9384;SDS011;4732;49.340;10.886;2024-01-10T08:16:40;19.03;;;11.17;;
9384;SDS011;4732;49.340;10.886;2024-01-10T08:19:06;23.73;;;12.30;;
9384;SDS011;4732;49.340;10.886;2024-01-10T08:21:32;21.57;;;12.47;;
9384;SDS011;4732;49.340;10.886;2024-01-10T08:23:58;26.90;;;13.97;;
9384;SDS011;4732;49.340;10.886;2024-01-10T08:26:23;27.97;;;15.13;;
9384;SDS011;4732;49.340;10.886;2024-01-10T08:28:49;22.97;;;12.67;;
9384;SDS011;4732;49.340;10.886;2024-01-10T08:31:16;25.03;;;13.97;;
9384;SDS011;4732;49.340;10.886;2024-01-10T08:33:42;29.00;;;15.13;;
9384;SDS011;4732;49.340;10.886;2024-01-10T08:36:08;23.17;;;13.13;;
9384;SDS011;4732;49.340;10.886;2024-01-10T08:38:37;28.80;;;14.67;;
9384;SDS011;4732;49.340;10.886;2024-01-10T08:41:03;27.83;;;13.87;;
9384;SDS011;4732;49.340;10.886;2024-01-10T08:43:29;25.27;;;14.13;;
9384;SDS011;4732;49.340;10.886;2024-01-10T08:45:55;25.60;;;14.00;;
9384;SDS011;4732;49.340;10.886;2024-01-10T08:48:24;25.80;;;13.37;;
9384;SDS011;4732;49.340;10.886;2024-01-10T08:50:50;26.67;;;13.33;;
9384;SDS011;4732;49.340;10.886;2024-01-10T08:53:16;25.10;;;13.87;;
9384;SDS011;4732;49.340;10.886;2024-01-10T08:55:42;26.07;;;13.90;;
9384;SDS011;4732;49.340;10.886;2024-01-10T08:58:07;23.87;;;12.77;;
9384;SDS011;4732;49.340;10.886;2024-01-10T09:00:33;21.10;;;13.03;;
9384;SDS011;4732;49.340;10.886;2024-01-10T09:02:59;23.97;;;13.37;;
9384;SDS011;4732;49.340;10.886;2024-01-10T09:05:25;25.40;;;12.47;;
9384;SDS011;4732;49.340;10.886;2024-01-10T09:07:51;24.63;;;13.00;;
9384;SDS011;4732;49.340;10.886;2024-01-10T09:10:18;24.40;;;13.97;;
9384;SDS011;4732;49.340;10.886;2024-01-10T09:12:46;28.27;;;14.43;;
9384;SDS011;4732;49.340;10.886;2024-01-10T09:15:12;26.10;;;13.13;;
9384;SDS011;4732;49.340;10.886;2024-01-10T09:17:40;25.87;;;13.13;;
9384;SDS011;4732;49.340;10.886;2024-01-10T09:20:09;25.37;;;15.57;;
9384;SDS011;4732;49.340;10.886;2024-01-10T09:22:36;29.77;;;13.70;;
9384;SDS011;4732;49.340;10.886;2024-01-10T09:25:03;25.67;;;13.07;;
9384;SDS011;4732;49.340;10.886;2024-01-10T09:27:30;23.27;;;12.20;;
9384;SDS011;4732;49.340;10.886;2024-01-10T09:30:00;24.93;;;12.97;;
9384;SDS011;4732;49.340;10.886;2024-01-10T09:32:27;21.53;;;11.70;;
9384;SDS011;4732;49.340;10.886;2024-01-10T09:34:54;26.87;;;12.67;;
9384;SDS011;4732;49.340;10.886;2024-01-10T09:37:20;21.33;;;12.07;;
9384;SDS011;4732;49.340;10.886;2024-01-10T09:39:46;21.83;;;12.67;;
9384;SDS011;4732;49.340;10.886;2024-01-10T09:42:12;24.73;;;12.40;;
9384;SDS011;4732;49.340;10.886;2024-01-10T09:44:39;22.20;;;12.60;;
9384;SDS011;4732;49.340;10.886;2024-01-10T09:47:06;24.77;;;13.30;;
9384;SDS011;4732;49.340;10.886;2024-01-10T09:49:34;22.57;;;12.60;;
9384;SDS011;4732;49.340;10.886;2024-01-10T09:52:00;24.40;;;12.53;;
9384;SDS011;4732;49.340;10.886;2024-01-10T09:54:30;22.07;;;11.97;;
9384;SDS011;4732;49.340;10.886;2024-01-10T09:56:56;23.50;;;11.33;;
9384;SDS011;4732;49.340;10.886;2024-01-10T09:59:23;24.00;;;12.93;;
9384;SDS011;4732;49.340;10.886;2024-01-10T10:01:49;22.47;;;12.57;;
9384;SDS011;4732;49.340;10.886;2024-01-10T10:04:17;25.13;;;12.73;;
9384;SDS011;4732;49.340;10.886;2024-01-10T10:06:45;25.17;;;12.53;;
9384;SDS011;4732;49.340;10.886;2024-01-10T10:09:11;29.20;;;17.27;;
9384;SDS011;4732;49.340;10.886;2024-01-10T10:11:38;20.30;;;11.53;;
9384;SDS011;4732;49.340;10.886;2024-01-10T10:14:13;22.97;;;12.00;;
9384;SDS011;4732;49.340;10.886;2024-01-10T10:16:42;23.30;;;13.03;;
9384;SDS011;4732;49.340;10.886;2024-01-10T10:19:11;22.87;;;12.33;;
9384;SDS011;4732;49.340;10.886;2024-01-10T10:21:49;24.23;;;13.33;;
9384;SDS011;4732;49.340;10.886;2024-01-10T10:24:23;20.63;;;12.57;;
9384;SDS011;4732;49.340;10.886;2024-01-10T10:26:55;24.40;;;12.17;;
9384;SDS011;4732;49.340;10.886;2024-01-10T10:29:29;22.07;;;12.63;;
9384;SDS011;4732;49.340;10.886;2024-01-10T10:32:27;23.47;;;12.87;;
9384;SDS011;4732;49.340;10.886;2024-01-10T10:35:24;24.70;;;12.73;;
9384;SDS011;4732;49.340;10.886;2024-01-10T10:38:13;21.40;;;12.63;;
9384;SDS011;4732;49.340;10.886;2024-01-10T10:40:44;33.50;;;16.07;;
9384;SDS011;4732;49.340;10.886;2024-01-10T10:43:14;42.37;;;18.33;;
9384;SDS011;4732;49.340;10.886;2024-01-10T10:48:25;25.33;;;13.50;;
9384;SDS011;4732;49.340;10.886;2024-01-10T10:51:02;27.60;;;13.67;;
9384;SDS011;4732;49.340;10.886;2024-01-10T10:53:49;26.57;;;13.63;;
9384;SDS011;4732;49.340;10.886;2024-01-10T10:56:18;23.83;;;12.37;;
9384;SDS011;4732;49.340;10.886;2024-01-10T10:58:44;24.23;;;13.17;;
9384;SDS011;4732;49.340;10.886;2024-01-10T11:01:13;23.90;;;12.57;;
9384;SDS011;4732;49.340;10.886;2024-01-10T11:03:42;23.37;;;13.00;;
9384;SDS011;4732;49.340;10.886;2024-01-10T11:06:12;24.37;;;12.90;;
9384;SDS011;4732;49.340;10.886;2024-01-10T11:08:48;20.13;;;12.03;;
9384;SDS011;4732;49.340;10.886;2024-01-10T11:14:47;25.80;;;13.30;;
9384;SDS011;4732;49.340;10.886;2024-01-10T11:25:32;24.83;;;12.53;;
9384;SDS011;4732;49.340;10.886;2024-01-10T11:28:04;24.60;;;12.33;;
9384;SDS011;4732;49.340;10.886;2024-01-10T11:30:35;23.97;;;12.87;;
9384;SDS011;4732;49.340;10.886;2024-01-10T11:33:24;20.40;;;12.53;;
9384;SDS011;4732;49.340;10.886;2024-01-10T11:36:06;22.50;;;12.43;;
9384;SDS011;4732;49.340;10.886;2024-01-10T11:38:39;23.13;;;13.00;;
9384;SDS011;4732;49.340;10.886;2024-01-10T11:46:47;21.43;;;12.53;;
9384;SDS011;4732;49.340;10.886;2024-01-10T11:49:18;21.57;;;11.87;;
9384;SDS011;4732;49.340;10.886;2024-01-10T11:51:52;24.43;;;12.43;;
9384;SDS011;4732;49.340;10.886;2024-01-10T11:57:08;21.70;;;11.83;;
9384;SDS011;4732;49.340;10.886;2024-01-10T11:59:47;21.93;;;11.90;;
9384;SDS011;4732;49.340;10.886;2024-01-10T12:02:30;19.10;;;11.53;;
9384;SDS011;4732;49.340;10.886;2024-01-10T12:05:06;20.37;;;12.20;;
9384;SDS011;4732;49.340;10.886;2024-01-10T12:07:38;18.17;;;11.00;;
9384;SDS011;4732;49.340;10.886;2024-01-10T12:10:05;22.07;;;11.83;;
9384;SDS011;4732;49.340;10.886;2024-01-10T12:12:31;20.27;;;11.87;;
9384;SDS011;4732;49.340;10.886;2024-01-10T12:14:57;21.70;;;11.77;;
9384;SDS011;4732;49.340;10.886;2024-01-10T12:17:26;21.60;;;13.00;;
9384;SDS011;4732;49.340;10.886;2024-01-10T12:19:53;19.93;;;12.30;;
9384;SDS011;4732;49.340;10.886;2024-01-10T12:22:18;20.33;;;11.80;;
9384;SDS011;4732;49.340;10.886;2024-01-10T12:24:47;22.20;;;12.20;;
9384;SDS011;4732;49.340;10.886;2024-01-10T12:27:15;19.40;;;11.27;;
9384;SDS011;4732;49.340;10.886;2024-01-10T12:29:42;21.87;;;12.60;;
9384;SDS011;4732;49.340;10.886;2024-01-10T12:32:07;23.03;;;12.23;;
9384;SDS011;4732;49.340;10.886;2024-01-10T12:34:37;21.03;;;12.80;;
9384;SDS011;4732;49.340;10.886;2024-01-10T12:37:03;21.97;;;12.77;;
9384;SDS011;4732;49.340;10.886;2024-01-10T12:39:30;21.13;;;12.53;;
9384;SDS011;4732;49.340;10.886;2024-01-10T12:41:56;20.67;;;11.83;;
9384;SDS011;4732;49.340;10.886;2024-01-10T12:44:26;18.70;;;11.23;;
9384;SDS011;4732;49.340;10.886;2024-01-10T12:46:52;18.03;;;10.53;;
9384;SDS011;4732;49.340;10.886;2024-01-10T12:49:18;19.17;;;11.57;;
9384;SDS011;4732;49.340;10.886;2024-01-10T12:51:44;21.90;;;11.97;;
9384;SDS011;4732;49.340;10.886;2024-01-10T12:54:10;19.10;;;11.83;;
9384;SDS011;4732;49.340;10.886;2024-01-10T12:56:35;18.50;;;11.60;;
9384;SDS011;4732;49.340;10.886;2024-01-10T12:59:00;19.73;;;12.27;;
9384;SDS011;4732;49.340;10.886;2024-01-10T13:01:26;17.53;;;11.20;;
9384;SDS011;4732;49.340;10.886;2024-01-10T13:03:51;17.93;;;11.20;;
9384;SDS011;4732;49.340;10.886;2024-01-10T13:06:17;18.67;;;10.87;;
9384;SDS011;4732;49.340;10.886;2024-01-10T13:08:44;18.90;;;11.40;;
9384;SDS011;4732;49.340;10.886;2024-01-10T13:11:10;20.87;;;12.13;;
9384;SDS011;4732;49.340;10.886;2024-01-10T13:13:36;17.87;;;10.73;;
9384;SDS011;4732;49.340;10.886;2024-01-10T13:16:05;18.67;;;10.70;;
9384;SDS011;4732;49.340;10.886;2024-01-10T13:18:31;17.27;;;10.60;;
9384;SDS011;4732;49.340;10.886;2024-01-10T13:20:56;20.00;;;10.80;;
9384;SDS011;4732;49.340;10.886;2024-01-10T13:23:22;17.90;;;10.83;;
9384;SDS011;4732;49.340;10.886;2024-01-10T13:25:49;18.40;;;11.47;;
9384;SDS011;4732;49.340;10.886;2024-01-10T13:28:15;20.03;;;11.87;;
9384;SDS011;4732;49.340;10.886;2024-01-10T13:30:41;19.53;;;11.10;;
9384;SDS011;4732;49.340;10.886;2024-01-10T13:33:08;18.63;;;12.37;;
9384;SDS011;4732;49.340;10.886;2024-01-10T13:35:37;19.80;;;11.77;;
9384;SDS011;4732;49.340;10.886;2024-01-10T13:38:03;19.97;;;12.47;;
9384;SDS011;4732;49.340;10.886;2024-01-10T13:40:29;19.43;;;11.87;;
9384;SDS011;4732;49.340;10.886;2024-01-10T13:42:56;17.80;;;11.00;;
9384;SDS011;4732;49.340;10.886;2024-01-10T13:45:22;18.33;;;11.47;;
9384;SDS011;4732;49.340;10.886;2024-01-10T13:47:48;23.67;;;12.17;;
9384;SDS011;4732;49.340;10.886;2024-01-10T13:50:14;17.93;;;11.07;;
9384;SDS011;4732;49.340;10.886;2024-01-10T13:52:40;24.87;;;12.77;;
9384;SDS011;4732;49.340;10.886;2024-01-10T13:55:05;20.63;;;12.00;;
9384;SDS011;4732;49.340;10.886;2024-01-10T13:57:32;20.17;;;12.43;;
9384;SDS011;4732;49.340;10.886;2024-01-10T13:59:58;18.13;;;11.23;;
9384;SDS011;4732;49.340;10.886;2024-01-10T14:02:24;18.20;;;11.27;;
9384;SDS011;4732;49.340;10.886;2024-01-10T14:04:50;22.23;;;11.70;;
9384;SDS011;4732;49.340;10.886;2024-01-10T14:07:16;21.17;;;11.90;;
9384;SDS011;4732;49.340;10.886;2024-01-10T14:09:41;15.57;;;10.37;;
9384;SDS011;4732;49.340;10.886;2024-01-10T14:12:07;20.43;;;11.20;;
9384;SDS011;4732;49.340;10.886;2024-01-10T14:14:33;20.33;;;12.47;;
9384;SDS011;4732;49.340;10.886;2024-01-10T14:16:59;17.73;;;11.10;;
9384;SDS011;4732;49.340;10.886;2024-01-10T14:19:24;16.67;;;10.53;;
9384;SDS011;4732;49.340;10.886;2024-01-10T14:21:50;17.30;;;10.57;;
9384;SDS011;4732;49.340;10.886;2024-01-10T14:24:15;19.10;;;10.17;;
9384;SDS011;4732;49.340;10.886;2024-01-10T14:26:42;17.33;;;10.67;;
9384;SDS011;4732;49.340;10.886;2024-01-10T14:29:08;17.87;;;11.40;;
9384;SDS011;4732;49.340;10.886;2024-01-10T14:31:34;18.40;;;10.60;;
9384;SDS011;4732;49.340;10.886;2024-01-10T14:34:00;17.07;;;11.17;;
9384;SDS011;4732;49.340;10.886;2024-01-10T14:36:25;21.83;;;11.30;;
9384;SDS011;4732;49.340;10.886;2024-01-10T14:38:51;18.03;;;10.50;;
9384;SDS011;4732;49.340;10.886;2024-01-10T14:41:17;16.87;;;10.10;;
9384;SDS011;4732;49.340;10.886;2024-01-10T14:43:42;20.10;;;11.37;;
9384;SDS011;4732;49.340;10.886;2024-01-10T14:46:08;17.53;;;10.73;;
9384;SDS011;4732;49.340;10.886;2024-01-10T14:48:35;18.87;;;11.57;;
9384;SDS011;4732;49.340;10.886;2024-01-10T14:51:01;18.57;;;11.97;;
9384;SDS011;4732;49.340;10.886;2024-01-10T14:53:27;16.50;;;10.17;;
9384;SDS011;4732;49.340;10.886;2024-01-10T14:55:52;16.47;;;10.30;;
9384;SDS011;4732;49.340;10.886;2024-01-10T14:58:18;15.17;;;10.13;;
9384;SDS011;4732;49.340;10.886;2024-01-10T15:00:44;15.17;;;9.70;;